الصفحة الرئيسية
METAR-TAF:

METAR-TAF

مطار :

Ubon Ratchathani, تايلاند

دائرة عرض: 15-15N, خط طول: 104-52E, ارتفاع: 123 متر

مراقبة الطقس الحالي

تاريخ ووقت الإصدار 25 دقيقة قبل الساعة 20:00UTC
ريح 4 عقدة من الشرق/الجنوب الشرقي, الاتجاه يتراوح بين الشرق و الجنوب
درجة الحرارة 26°درجة مئوية
الرطوبة 74%
ضغط 1009 hPa
الرؤية: 9000 متر

METAR: VTUU 032000Z 12004KT 080V170 9000 NSC 26/21 Q1009 NOSIG

زمن: 03:25 (20:25 UTC)

توقعات

تاريخ ووقت الإصدار 3ساعات و 25 دقيقة قبل الساعة 17:00UTC
التوقعات صالحة من03 الساعة 18 UTC إلى 04 الساعة 18 UTC
ريح 5 عقدة من الجنوب
الرؤية: 9000 متر
غيوم قليلة على ارتفاع 4000 قدم

TAF: VTUU 031700Z 0318/0418 19005KT 9000 FEW040

أرصاد الطقس والتوقعات من أكثر من 4000 مطار (تقارير الطقس للمطار METAR والتنبؤ بالطقس بالمطارTAF).

المحطات المتاحة هي النقط الصفراء والحمراء على الخريطة.

حرك المؤشر فوق النقطة لمعرفة اسم المحطة.

ثم انقر لمعرفة أرصاد وتوقعات الطقس.

لتغيير الخارطة: اضغط على الأزرار الخضراء مع رمز الصليب الأسود للتكبير. على الزر الأخضر مع شرطة للتصغير، أو على الأسهم الخضراء للخرائط المجاورة.


METAR-TAF: